createdAt,value
2023-11-18T00:01:34.356Z,2.20
2023-11-18T00:04:01.646Z,2.10
2023-11-18T00:06:29.291Z,2.10
2023-11-18T00:08:56.271Z,2.10
2023-11-18T00:11:23.179Z,2.10
2023-11-18T00:13:50.130Z,2.10
2023-11-18T00:16:17.863Z,2.10
2023-11-18T00:18:44.935Z,2.10
2023-11-18T00:21:12.910Z,2.00
2023-11-18T00:23:40.203Z,2.00
2023-11-18T00:26:08.139Z,2.00
2023-11-18T00:28:35.311Z,2.00
2023-11-18T00:31:02.419Z,2.00
2023-11-18T00:33:29.370Z,2.00
2023-11-18T00:35:56.112Z,1.90
2023-11-18T00:38:22.888Z,1.90
2023-11-18T00:40:49.850Z,1.90
2023-11-18T00:43:16.684Z,1.90
2023-11-18T00:45:44.547Z,1.80
2023-11-18T00:48:11.564Z,1.80
2023-11-18T00:50:38.488Z,1.80
2023-11-18T00:53:06.644Z,1.80
2023-11-18T00:55:33.817Z,1.80
2023-11-18T00:58:00.827Z,1.80
2023-11-18T01:00:27.854Z,1.80
2023-11-18T01:02:55.990Z,1.80
2023-11-18T01:05:23.048Z,1.70
2023-11-18T01:07:50.657Z,1.70
2023-11-18T01:10:17.617Z,1.70
2023-11-18T01:12:46.745Z,1.70
2023-11-18T01:15:15.163Z,1.70
2023-11-18T01:17:42.288Z,1.70
2023-11-18T01:20:12.008Z,1.60
2023-11-18T01:22:39.387Z,1.70
2023-11-18T01:25:06.902Z,1.70
2023-11-18T01:27:36.741Z,1.70
2023-11-18T01:30:05.783Z,1.70
2023-11-18T01:32:32.896Z,1.70
2023-11-18T01:34:59.854Z,1.70
2023-11-18T01:37:26.734Z,1.60
2023-11-18T01:39:53.492Z,1.70
2023-11-18T01:42:20.268Z,1.70
2023-11-18T01:44:47.211Z,1.70
2023-11-18T01:47:14.280Z,1.70
2023-11-18T01:49:42.008Z,1.60
2023-11-18T01:52:09.552Z,1.70
2023-11-18T01:54:43.562Z,1.60
2023-11-18T01:57:12.187Z,1.70
2023-11-18T01:59:39.194Z,1.70
2023-11-18T02:02:06.145Z,1.70
2023-11-18T02:04:33.284Z,1.60
2023-11-18T02:07:04.739Z,1.60
2023-11-18T02:09:32.189Z,1.50
2023-11-18T02:12:10.883Z,1.50
2023-11-18T02:14:40.202Z,1.50
2023-11-18T02:17:10.368Z,1.50
2023-11-18T02:19:37.409Z,1.50
2023-11-18T02:22:08.049Z,1.50
2023-11-18T02:24:38.635Z,1.50
2023-11-18T02:27:08.948Z,1.40
2023-11-18T02:29:37.195Z,1.50
2023-11-18T02:32:12.384Z,1.50
2023-11-18T02:34:43.868Z,1.50
2023-11-18T02:37:11.698Z,1.50
2023-11-18T02:39:42.050Z,1.50
2023-11-18T02:42:13.313Z,1.50
2023-11-18T02:44:41.059Z,1.50
2023-11-18T02:47:07.887Z,1.50
2023-11-18T02:49:38.610Z,1.50
2023-11-18T02:52:06.269Z,1.50
2023-11-18T02:54:33.118Z,1.50
2023-11-18T02:57:00.062Z,1.50
2023-11-18T02:59:27.394Z,1.50
2023-11-18T03:01:55.318Z,1.50
2023-11-18T03:04:22.074Z,1.50
2023-11-18T03:06:48.821Z,1.60
2023-11-18T03:09:16.698Z,1.50
2023-11-18T03:11:45.508Z,1.50
2023-11-18T03:14:12.313Z,1.60
2023-11-18T03:16:40.043Z,1.50
2023-11-18T03:19:08.002Z,1.60
2023-11-18T03:21:34.990Z,1.50
2023-11-18T03:24:01.754Z,1.50
2023-11-18T03:26:28.495Z,1.60
2023-11-18T03:28:55.226Z,1.60
2023-11-18T03:31:22.008Z,1.60
2023-11-18T03:33:48.803Z,1.60
2023-11-18T03:36:18.962Z,1.60
2023-11-18T03:38:45.844Z,1.60
2023-11-18T03:41:17.481Z,1.60
2023-11-18T03:43:44.450Z,1.60
2023-11-18T03:46:12.703Z,1.60
2023-11-18T03:48:39.497Z,1.50
2023-11-18T03:51:06.527Z,1.60
2023-11-18T03:53:34.883Z,1.50
2023-11-18T03:56:01.718Z,1.50
2023-11-18T03:58:29.170Z,1.50
2023-11-18T04:00:55.977Z,1.50
2023-11-18T04:03:22.784Z,1.50
2023-11-18T04:05:49.580Z,1.50
2023-11-18T04:08:16.366Z,1.50
2023-11-18T04:10:43.171Z,1.50
2023-11-18T04:13:11.047Z,1.50
2023-11-18T04:15:38.145Z,1.50
2023-11-18T04:18:05.562Z,1.50
2023-11-18T04:20:32.399Z,1.40
2023-11-18T04:22:59.263Z,1.40
2023-11-18T04:25:26.502Z,1.40
2023-11-18T04:27:53.498Z,1.40
2023-11-18T04:30:20.299Z,1.30
2023-11-18T04:32:47.176Z,1.40
2023-11-18T04:35:14.467Z,1.30
2023-11-18T04:37:44.171Z,1.30
2023-11-18T04:40:11.960Z,1.30
2023-11-18T04:42:41.512Z,1.30
2023-11-18T04:45:10.705Z,1.30
2023-11-18T04:47:38.686Z,1.20
2023-11-18T04:50:05.606Z,1.30
2023-11-18T04:52:36.270Z,1.20
2023-11-18T04:55:04.656Z,1.20
2023-11-18T04:57:31.658Z,1.20
2023-11-18T04:59:58.494Z,1.20
2023-11-18T05:02:25.542Z,1.20
2023-11-18T05:04:52.319Z,1.20
2023-11-18T05:07:19.135Z,1.30
2023-11-18T05:09:46.037Z,1.30
2023-11-18T05:12:12.801Z,1.40
2023-11-18T05:14:39.578Z,1.40
2023-11-18T05:17:06.585Z,1.40
2023-11-18T05:19:33.514Z,1.50
2023-11-18T05:22:01.382Z,1.50
2023-11-18T05:24:28.378Z,1.60
2023-11-18T05:26:55.472Z,1.50
2023-11-18T05:29:22.626Z,1.60
2023-11-18T05:31:49.614Z,1.50
2023-11-18T05:34:16.450Z,1.60
2023-11-18T05:36:43.149Z,1.60
2023-11-18T05:39:10.780Z,1.60
2023-11-18T05:41:40.669Z,1.60
2023-11-18T05:44:18.464Z,1.60
2023-11-18T05:46:47.881Z,1.60
2023-11-18T05:49:14.887Z,1.60
2023-11-18T05:51:44.528Z,1.60
2023-11-18T05:54:11.330Z,1.60
2023-11-18T05:56:38.311Z,1.70
2023-11-18T05:59:05.923Z,1.70
2023-11-18T06:01:34.429Z,1.70
2023-11-18T06:04:02.281Z,1.70
2023-11-18T06:06:29.264Z,1.80
2023-11-18T06:08:56.062Z,1.80
2023-11-18T06:11:24.735Z,1.80
2023-11-18T06:13:52.544Z,1.80
2023-11-18T06:16:23.033Z,1.80
2023-11-18T06:18:50.924Z,1.90
2023-11-18T06:21:19.363Z,1.90
2023-11-18T06:23:50.656Z,1.90
2023-11-18T06:26:18.739Z,2.00
2023-11-18T06:28:46.229Z,2.00
2023-11-18T06:31:13.520Z,2.00
2023-11-18T06:33:44.622Z,2.00
2023-11-18T06:36:14.821Z,2.00
2023-11-18T06:38:41.949Z,2.10
2023-11-18T06:41:14.405Z,2.10
2023-11-18T06:43:59.667Z,2.10
2023-11-18T06:46:27.513Z,2.20
2023-11-18T06:48:58.506Z,2.20
2023-11-18T06:51:26.224Z,2.20
2023-11-18T06:53:53.250Z,2.20
2023-11-18T06:56:20.311Z,2.20
2023-11-18T06:58:47.427Z,2.30
2023-11-18T07:01:15.984Z,2.20
2023-11-18T07:03:43.405Z,2.20
2023-11-18T07:06:10.712Z,2.30
2023-11-18T07:08:37.905Z,2.30
2023-11-18T07:11:05.000Z,2.30
2023-11-18T07:13:32.862Z,2.30
2023-11-18T07:16:00.256Z,2.40
2023-11-18T07:18:27.247Z,2.40
2023-11-18T07:21:02.349Z,2.40
2023-11-18T07:23:29.316Z,2.40
2023-11-18T07:25:57.430Z,2.40
2023-11-18T07:28:24.800Z,2.40
2023-11-18T07:30:52.189Z,2.40
2023-11-18T07:33:20.244Z,2.40
2023-11-18T07:35:49.347Z,2.50
2023-11-18T07:38:16.882Z,2.50
2023-11-18T07:40:46.918Z,2.50
2023-11-18T07:43:14.379Z,2.60
2023-11-18T07:45:41.607Z,2.60
2023-11-18T07:48:13.118Z,2.60
2023-11-18T07:50:45.694Z,2.60
2023-11-18T07:53:17.778Z,2.70
2023-11-18T07:55:46.164Z,2.70
2023-11-18T07:58:13.331Z,2.80
2023-11-18T08:00:44.150Z,2.80
2023-11-18T08:03:15.682Z,2.80
2023-11-18T08:05:46.795Z,2.90
2023-11-18T08:08:14.765Z,2.80
2023-11-18T08:10:43.595Z,2.90
2023-11-18T08:13:11.029Z,2.90
2023-11-18T08:15:42.714Z,3.00
2023-11-18T08:18:11.697Z,3.00
2023-11-18T08:20:38.961Z,3.10
2023-11-18T08:23:09.106Z,3.20
2023-11-18T08:25:39.827Z,3.20
2023-11-18T08:28:08.344Z,3.30
2023-11-18T08:30:38.992Z,3.30
2023-11-18T08:33:08.823Z,3.40
2023-11-18T08:35:36.205Z,3.50
2023-11-18T08:38:05.162Z,3.50
2023-11-18T08:40:32.210Z,3.60
2023-11-18T08:42:59.563Z,3.60
2023-11-18T08:45:37.486Z,3.70
2023-11-18T08:48:09.777Z,3.70
2023-11-18T08:50:37.992Z,3.80
2023-11-18T08:53:07.001Z,3.90
2023-11-18T08:55:41.578Z,3.90
2023-11-18T08:58:21.223Z,4.00
2023-11-18T09:01:06.774Z,4.00
2023-11-18T09:03:37.848Z,4.10
2023-11-18T09:06:19.077Z,4.10
2023-11-18T09:08:53.720Z,4.20
2023-11-18T09:11:25.126Z,4.20
2023-11-18T09:13:56.089Z,4.30
2023-11-18T09:16:24.125Z,4.30
2023-11-18T09:18:53.833Z,4.30
2023-11-18T09:21:31.098Z,4.40
2023-11-18T09:24:07.522Z,4.40
2023-11-18T09:26:36.764Z,4.40
2023-11-18T09:29:04.029Z,4.50
2023-11-18T09:31:36.742Z,4.50
2023-11-18T09:34:07.908Z,4.50
2023-11-18T09:36:35.132Z,4.50
2023-11-18T09:39:05.078Z,4.60
2023-11-18T09:41:35.921Z,4.60
2023-11-18T09:44:06.234Z,4.70
2023-11-18T09:46:42.565Z,4.70
2023-11-18T09:49:28.024Z,4.80
2023-11-18T09:51:58.380Z,4.70
2023-11-18T09:54:37.957Z,4.80
2023-11-18T09:57:11.256Z,4.80
2023-11-18T10:00:08.974Z,4.90
2023-11-18T10:02:39.129Z,5.00
2023-11-18T10:05:13.599Z,5.00
2023-11-18T10:07:46.433Z,5.10
2023-11-18T10:10:17.205Z,5.20
2023-11-18T10:12:53.434Z,5.20
2023-11-18T10:15:24.948Z,5.30
2023-11-18T10:18:03.776Z,5.30
2023-11-18T10:20:41.050Z,5.40
2023-11-18T10:23:12.128Z,5.40
2023-11-18T10:25:59.990Z,5.50
2023-11-18T10:28:33.921Z,5.50
2023-11-18T10:31:10.745Z,5.50
2023-11-18T10:33:39.158Z,5.60
2023-11-18T10:36:15.796Z,5.60
2023-11-18T10:38:44.913Z,5.60
2023-11-18T10:41:13.336Z,5.60
2023-11-18T10:43:43.233Z,5.70
2023-11-18T10:46:17.867Z,5.70
2023-11-18T10:48:48.380Z,5.80
2023-11-18T10:51:17.272Z,5.80
2023-11-18T10:54:02.287Z,5.70
2023-11-18T10:56:34.926Z,5.80
2023-11-18T10:59:08.434Z,5.80
2023-11-18T11:01:50.703Z,5.80
2023-11-18T11:04:21.547Z,5.90
2023-11-18T11:06:57.445Z,5.90
2023-11-18T11:09:36.796Z,5.80
2023-11-18T11:12:09.453Z,5.90
2023-11-18T11:14:44.740Z,5.90
2023-11-18T11:17:19.835Z,5.90
2023-11-18T11:20:00.724Z,5.90
2023-11-18T11:22:34.788Z,5.90
2023-11-18T11:25:11.217Z,6.00
2023-11-18T11:28:02.873Z,6.00
2023-11-18T11:30:32.881Z,6.00
2023-11-18T11:33:09.967Z,6.00
2023-11-18T11:35:38.767Z,6.00
2023-11-18T11:38:11.023Z,6.00
2023-11-18T11:40:38.683Z,6.00
2023-11-18T11:43:10.821Z,6.00
2023-11-18T11:45:40.543Z,6.00
2023-11-18T11:48:15.429Z,6.00
2023-11-18T11:50:54.141Z,6.10
2023-11-18T11:53:24.133Z,6.10
2023-11-18T11:55:54.926Z,6.10
2023-11-18T11:58:34.949Z,6.10
2023-11-18T12:01:08.682Z,6.10
2023-11-18T12:03:46.493Z,6.20
2023-11-18T12:06:17.342Z,6.20
2023-11-18T12:08:45.580Z,6.20
2023-11-18T12:11:14.091Z,6.30
2023-11-18T12:13:42.010Z,6.30
2023-11-18T12:16:11.620Z,6.30
2023-11-18T12:18:41.223Z,6.30
2023-11-18T12:21:22.064Z,6.30
2023-11-18T12:24:15.260Z,6.30
2023-11-18T12:26:45.273Z,6.30
2023-11-18T12:29:35.175Z,6.30
2023-11-18T12:32:03.718Z,6.30
2023-11-18T12:34:49.617Z,6.30
2023-11-18T12:37:26.730Z,6.30
2023-11-18T12:40:13.523Z,6.20
2023-11-18T12:42:59.456Z,6.20
2023-11-18T12:45:29.390Z,6.30
2023-11-18T12:48:12.950Z,6.20
2023-11-18T12:50:42.127Z,6.20
2023-11-18T12:53:10.372Z,6.20
2023-11-18T12:58:37.004Z,6.30
2023-11-18T13:01:18.199Z,6.30
2023-11-18T13:03:53.941Z,6.30
2023-11-18T13:06:30.053Z,6.30
2023-11-18T13:09:04.655Z,6.30
2023-11-18T13:11:35.206Z,6.40
2023-11-18T13:14:04.001Z,6.30
2023-11-18T13:16:31.347Z,6.40
2023-11-18T13:19:23.772Z,6.40
2023-11-18T13:21:59.855Z,6.40
2023-11-18T13:24:41.533Z,6.40
2023-11-18T13:27:18.063Z,6.30
2023-11-18T13:29:56.358Z,6.40
2023-11-18T13:32:32.128Z,6.30
2023-11-18T13:35:02.904Z,6.30
2023-11-18T13:37:38.240Z,6.40
2023-11-18T13:40:11.967Z,6.40
2023-11-18T13:42:58.369Z,6.40
2023-11-18T13:45:38.176Z,6.40
2023-11-18T13:48:51.929Z,6.50
2023-11-18T13:51:26.931Z,6.50
2023-11-18T13:54:06.423Z,6.50
2023-11-18T13:56:42.877Z,6.50
2023-11-18T13:59:20.929Z,6.40
2023-11-18T14:02:19.203Z,6.50
2023-11-18T14:04:58.415Z,6.50
2023-11-18T14:07:28.687Z,6.50
2023-11-18T14:10:00.650Z,6.50
2023-11-18T14:12:28.931Z,6.50
2023-11-18T14:14:56.338Z,6.50
2023-11-18T14:17:29.087Z,6.60
2023-11-18T14:22:47.655Z,6.60
2023-11-18T14:25:20.103Z,6.60
2023-11-18T14:27:55.978Z,6.50
2023-11-18T14:30:25.536Z,6.50
2023-11-18T14:32:53.057Z,6.60
2023-11-18T14:35:22.016Z,6.50
2023-11-18T14:37:49.410Z,6.60
2023-11-18T14:40:26.036Z,6.50
2023-11-18T14:42:56.865Z,6.50
2023-11-18T14:45:24.487Z,6.50
2023-11-18T14:47:54.203Z,6.50
2023-11-18T14:50:27.043Z,6.60
2023-11-18T14:53:00.696Z,6.50
2023-11-18T14:55:35.543Z,6.50
2023-11-18T14:58:05.538Z,6.50
2023-11-18T15:00:38.417Z,6.60
2023-11-18T15:03:08.241Z,6.50
2023-11-18T15:05:35.887Z,6.60
2023-11-18T15:08:03.459Z,6.50
2023-11-18T15:10:36.552Z,6.60
2023-11-18T15:13:04.045Z,6.60
2023-11-18T15:15:32.749Z,6.50
2023-11-18T15:18:09.879Z,6.60
2023-11-18T15:20:37.600Z,6.60
2023-11-18T15:23:06.073Z,6.60
2023-11-18T15:25:35.621Z,6.50
2023-11-18T15:28:05.144Z,6.50
2023-11-18T15:30:41.311Z,6.50
2023-11-18T15:33:12.352Z,6.50
2023-11-18T15:35:42.433Z,6.50
2023-11-18T15:38:21.846Z,6.50
2023-11-18T15:40:53.680Z,6.50
2023-11-18T15:43:33.474Z,6.50
2023-11-18T15:46:01.557Z,6.50
2023-11-18T15:48:37.999Z,6.50
2023-11-18T15:51:11.046Z,6.50
2023-11-18T15:53:39.394Z,6.50
2023-11-18T15:56:08.922Z,6.50
2023-11-18T15:58:37.253Z,6.50
2023-11-18T16:01:04.930Z,6.50
2023-11-18T16:03:37.083Z,6.50
2023-11-18T16:06:05.495Z,6.50
2023-11-18T16:08:34.872Z,6.50
2023-11-18T16:11:03.587Z,6.50
2023-11-18T16:13:31.205Z,6.50
2023-11-18T16:16:39.424Z,6.50
2023-11-18T16:20:07.461Z,6.50
2023-11-18T16:22:39.161Z,6.50
2023-11-18T16:25:06.546Z,6.50
2023-11-18T16:27:36.144Z,6.50
2023-11-18T16:30:05.225Z,6.50
2023-11-18T16:32:40.718Z,6.50
2023-11-18T16:35:17.057Z,6.50
2023-11-18T16:37:52.092Z,6.50
2023-11-18T16:40:25.307Z,6.50
2023-11-18T16:42:56.468Z,6.50
2023-11-18T16:45:28.347Z,6.50
2023-11-18T16:48:02.829Z,6.40
2023-11-18T16:50:36.858Z,6.50
2023-11-18T16:53:07.842Z,6.50
2023-11-18T16:55:37.449Z,6.50
2023-11-18T16:58:18.452Z,6.60
2023-11-18T17:00:50.575Z,6.60
2023-11-18T17:03:21.040Z,6.60
2023-11-18T17:05:53.720Z,6.60
2023-11-18T17:08:21.487Z,6.60
2023-11-18T17:10:56.232Z,6.70
2023-11-18T17:13:27.716Z,6.70
2023-11-18T17:15:59.052Z,6.70
2023-11-18T17:18:36.191Z,6.70
2023-11-18T17:21:12.049Z,6.70
2023-11-18T17:23:46.863Z,6.70
2023-11-18T17:26:18.814Z,6.70
2023-11-18T17:28:52.232Z,6.70
2023-11-18T17:31:20.453Z,6.80
2023-11-18T17:34:14.927Z,6.80
2023-11-18T17:36:42.224Z,6.80
2023-11-18T17:39:12.761Z,6.80
2023-11-18T17:41:43.710Z,6.80
2023-11-18T17:44:11.463Z,6.80
2023-11-18T17:46:39.139Z,6.90
2023-11-18T17:49:05.879Z,6.80
2023-11-18T17:51:34.086Z,6.90
2023-11-18T17:54:00.992Z,6.90
2023-11-18T17:56:27.977Z,6.90
2023-11-18T17:58:54.744Z,6.90
2023-11-18T18:01:22.426Z,6.90
2023-11-18T18:03:50.308Z,6.90
2023-11-18T18:06:20.896Z,6.90
2023-11-18T18:08:47.675Z,6.90
2023-11-18T18:11:26.949Z,7.00
2023-11-18T18:13:53.907Z,7.00
2023-11-18T18:16:20.657Z,7.00
2023-11-18T18:18:47.578Z,7.00
2023-11-18T18:21:14.394Z,7.00
2023-11-18T18:23:41.182Z,7.00
2023-11-18T18:26:11.322Z,7.00
2023-11-18T18:28:38.347Z,7.00
2023-11-18T18:31:05.248Z,7.00
2023-11-18T18:33:32.318Z,7.00
2023-11-18T18:35:59.192Z,7.10
2023-11-18T18:38:26.155Z,7.00
2023-11-18T18:40:52.929Z,7.10
2023-11-18T18:43:19.721Z,7.10
2023-11-18T18:45:46.527Z,7.10
2023-11-18T18:48:13.455Z,7.10
2023-11-18T18:50:41.076Z,7.10
2023-11-18T18:53:09.237Z,7.10
2023-11-18T18:55:37.987Z,7.20
2023-11-18T18:58:04.816Z,7.20
2023-11-18T19:00:31.683Z,7.20
2023-11-18T19:02:58.748Z,7.20
2023-11-18T19:05:25.734Z,7.30
2023-11-18T19:07:56.773Z,7.20
2023-11-18T19:10:24.708Z,7.30
2023-11-18T19:12:51.661Z,7.30
2023-11-18T19:15:18.603Z,7.30
2023-11-18T19:17:46.329Z,7.30
2023-11-18T19:20:15.457Z,7.30
2023-11-18T19:22:45.863Z,7.30
2023-11-18T19:25:14.285Z,7.30
2023-11-18T19:27:47.300Z,7.40
2023-11-18T19:30:17.489Z,7.40
2023-11-18T19:32:44.606Z,7.40
2023-11-18T19:35:15.130Z,7.40
2023-11-18T19:37:45.387Z,7.40
2023-11-18T19:40:12.535Z,7.40
2023-11-18T19:42:39.503Z,7.40
2023-11-18T19:45:09.040Z,7.40
2023-11-18T19:47:36.957Z,7.50
2023-11-18T19:50:09.839Z,7.50
2023-11-18T19:52:36.808Z,7.50
2023-11-18T19:55:05.873Z,7.60
2023-11-18T19:57:35.850Z,7.60
2023-11-18T20:00:06.333Z,7.70
2023-11-18T20:02:39.617Z,7.70
2023-11-18T20:05:09.659Z,7.70
2023-11-18T20:07:36.666Z,7.80
2023-11-18T20:10:03.498Z,7.80
2023-11-18T20:12:33.103Z,7.90
2023-11-18T20:15:00.264Z,7.80
2023-11-18T20:17:27.211Z,7.90
2023-11-18T20:19:54.038Z,7.90
2023-11-18T20:22:20.883Z,8.00
2023-11-18T20:24:49.413Z,8.00
2023-11-18T20:27:16.542Z,8.00
2023-11-18T20:29:44.362Z,8.00
2023-11-18T20:32:11.291Z,8.10
2023-11-18T20:34:38.016Z,8.10
2023-11-18T20:37:06.844Z,8.10
2023-11-18T20:39:34.771Z,8.20
2023-11-18T20:42:01.627Z,8.20
2023-11-18T20:44:28.973Z,8.20
2023-11-18T20:47:04.674Z,8.30
2023-11-18T20:49:31.996Z,8.30
2023-11-18T20:51:59.456Z,8.30
2023-11-18T20:54:26.491Z,8.30
2023-11-18T20:56:53.332Z,8.30
2023-11-18T20:59:20.756Z,8.30
2023-11-18T21:01:47.880Z,8.40
2023-11-18T21:04:16.339Z,8.40
2023-11-18T21:06:43.775Z,8.40
2023-11-18T21:09:10.601Z,8.40
2023-11-18T21:11:37.532Z,8.40
2023-11-18T21:14:04.898Z,8.40
2023-11-18T21:16:32.896Z,8.50
2023-11-18T21:19:02.046Z,8.50
2023-11-18T21:21:29.212Z,8.50
2023-11-18T21:23:56.181Z,8.50
2023-11-18T21:26:25.913Z,8.60
2023-11-18T21:28:53.163Z,8.60
2023-11-18T21:31:23.328Z,8.60
2023-11-18T21:33:54.134Z,8.70
2023-11-18T21:36:23.142Z,8.70
2023-11-18T21:41:28.016Z,8.70
2023-11-18T21:44:06.832Z,8.70
2023-11-18T21:46:38.176Z,8.80
2023-11-18T21:49:11.336Z,8.80
2023-11-18T21:51:38.960Z,8.80
2023-11-18T21:54:06.058Z,8.90
2023-11-18T21:56:36.518Z,8.90
2023-11-18T21:59:06.840Z,8.90
2023-11-18T22:01:34.216Z,8.90
2023-11-18T22:04:04.525Z,8.90
2023-11-18T22:06:31.438Z,8.90
2023-11-18T22:08:58.891Z,8.90
2023-11-18T22:11:25.795Z,8.90
2023-11-18T22:13:53.494Z,8.90
2023-11-18T22:16:20.568Z,8.90
2023-11-18T22:18:47.732Z,8.90
2023-11-18T22:21:16.214Z,8.90
2023-11-18T22:23:44.072Z,9.00
2023-11-18T22:26:11.190Z,8.90
2023-11-18T22:28:40.349Z,9.00
2023-11-18T22:31:08.140Z,9.00
2023-11-18T22:33:42.271Z,9.00
2023-11-18T22:36:12.383Z,8.90
2023-11-18T22:38:39.613Z,9.00
2023-11-18T22:41:10.800Z,8.90
2023-11-18T22:43:37.608Z,8.90
2023-11-18T22:46:06.287Z,8.90
2023-11-18T22:48:36.528Z,8.90
2023-11-18T22:51:04.415Z,9.00
2023-11-18T22:53:31.240Z,9.00
2023-11-18T22:55:57.998Z,9.00
2023-11-18T22:58:24.734Z,9.00
2023-11-18T23:00:52.477Z,8.90
2023-11-18T23:03:20.053Z,9.00
2023-11-18T23:05:47.296Z,9.00
2023-11-18T23:08:18.117Z,9.00
2023-11-18T23:10:47.371Z,9.10
2023-11-18T23:13:14.934Z,9.10
2023-11-18T23:15:41.940Z,9.10
2023-11-18T23:18:10.570Z,9.10
2023-11-18T23:20:38.148Z,9.20
2023-11-18T23:23:05.928Z,9.20
2023-11-18T23:25:32.982Z,9.20
2023-11-18T23:28:02.208Z,9.20
2023-11-18T23:30:31.412Z,9.20
2023-11-18T23:32:58.246Z,9.20
2023-11-18T23:35:25.095Z,9.20
2023-11-18T23:37:55.182Z,9.20
2023-11-18T23:40:23.632Z,9.20
2023-11-18T23:42:50.528Z,9.20
2023-11-18T23:45:19.595Z,9.30
2023-11-18T23:47:51.021Z,9.30
2023-11-18T23:50:18.174Z,9.30
2023-11-18T23:52:44.941Z,9.30
2023-11-18T23:55:14.424Z,9.30
2023-11-18T23:57:42.258Z,9.30
